Time;durP1;ratioP1;P1;durP2;ratioP2;P2;SDS_P1;SDS_P2;PMS_P1;PMS_P2;Temp;Humidity;BMP_temperature;BMP_pressure;BME280_temperature;BME280_humidity;BME280_pressure;Samples;Min_cycle;Max_cycle;Signal;HPM_P1;HPM_P2
2020/12/21 00:00:41;;;;;;;15.95;14.68;;;;;;;2.77;69.00;100831.06;10458354;28;20570;-65
2020/12/21 00:05:49;;;;;;;15.13;13.93;;;;;;;2.68;69.69;100834.41;10458550;28;20061;-66
2020/12/21 00:10:50;;;;;;;16.92;15.65;;;;;;;2.84;69.55;100830.28;10457918;28;20056;-65
2020/12/21 00:15:52;;;;;;;17.17;15.40;;;;;;;2.72;70.09;100833.59;10457954;28;20433;-66
2020/12/21 00:20:53;;;;;;;16.90;15.60;;;;;;;2.72;70.35;100838.78;10457867;28;20052;-66
2020/12/21 00:25:54;;;;;;;16.88;15.55;;;;;;;2.93;69.74;100832.13;10456652;28;20051;-63
2020/12/21 00:30:55;;;;;;;17.25;15.85;;;;;;;2.92;70.28;100836.47;10456836;28;20504;-66
2020/12/21 00:36:08;;;;;;;17.85;16.35;;;;;;;2.81;70.71;100835.44;10456902;28;20043;-66
2020/12/21 00:41:13;;;;;;;18.20;16.80;;;;;;;2.82;71.06;100831.09;10456380;28;20068;-66
2020/12/21 00:46:25;;;;;;;18.80;17.13;;;;;;;2.72;71.67;100827.53;10456488;28;20047;-66
2020/12/21 00:51:27;;;;;;;17.83;16.40;;;;;;;2.57;72.18;100830.81;10438462;28;20494;-66
2020/12/21 00:56:28;;;;;;;18.40;16.90;;;;;;;2.58;72.32;100829.09;10438036;28;20041;-64
2020/12/21 01:01:29;;;;;;;19.27;17.75;;;;;;;2.71;72.15;100829.25;10455982;28;20037;-65
2020/12/21 01:06:34;;;;;;;21.08;19.25;;;;;;;2.58;72.51;100831.69;10497777;22;20043;-65
2020/12/21 01:11:36;;;;;;;18.75;17.23;;;;;;;2.66;72.93;100838.72;10546457;28;20119;-66
2020/12/21 01:16:38;;;;;;;19.92;18.35;;;;;;;2.66;72.95;100843.03;10544798;28;20547;-65
2020/12/21 01:21:39;;;;;;;22.38;20.15;;;;;;;2.31;74.01;100837.34;10527368;28;20044;-65
2020/12/21 01:26:41;;;;;;;21.92;20.02;;;;;;;2.35;74.06;100833.97;10544470;28;20062;-65
2020/12/21 01:31:42;;;;;;;22.38;20.48;;;;;;;2.46;73.67;100833.25;10543794;28;20396;-65
2020/12/21 01:36:45;;;;;;;21.80;19.80;;;;;;;2.35;73.70;100852.13;10550044;28;20562;-65
2020/12/21 01:41:46;;;;;;;21.65;19.85;;;;;;;2.49;73.79;100843.69;10551044;28;20040;-65
2020/12/21 01:46:47;;;;;;;22.27;20.38;;;;;;;2.49;73.75;100845.41;10551110;28;20040;-66
2020/12/21 01:51:50;;;;;;;22.05;20.02;;;;;;;2.35;73.86;100846.94;10552375;28;20048;-66
2020/12/21 01:56:53;;;;;;;24.17;21.67;;;;;;;2.49;73.96;100853.19;10552376;28;20072;-64
2020/12/21 02:01:55;;;;;;;21.35;19.63;;;;;;;2.53;73.95;100857.56;10550036;28;20447;-65
2020/12/21 02:07:06;;;;;;;21.38;19.58;;;;;;;2.57;73.55;100855.88;10533762;28;20032;-65
2020/12/21 02:12:11;;;;;;;23.02;21.05;;;;;;;2.56;73.78;100849.81;10549829;28;20102;-64
2020/12/21 02:17:12;;;;;;;22.73;20.63;;;;;;;2.58;73.73;100858.50;10551047;28;20040;-65
2020/12/21 02:22:13;;;;;;;22.45;20.25;;;;;;;2.55;74.27;100857.59;10549389;28;20550;-64
2020/12/21 02:27:15;;;;;;;23.27;21.20;;;;;;;2.69;73.61;100848.25;10550317;28;20101;-66
2020/12/21 02:32:17;;;;;;;23.10;20.95;;;;;;;2.68;73.76;100854.31;10550128;28;20040;-64
2020/12/21 02:37:26;;;;;;;23.88;21.63;;;;;;;2.67;73.72;100849.97;10552450;28;20036;-65
2020/12/21 02:42:27;;;;;;;23.73;21.63;;;;;;;2.67;73.71;100858.63;10549416;28;20350;-65
2020/12/21 02:47:28;;;;;;;24.17;22.00;;;;;;;2.74;73.42;100850.03;10550338;28;20078;-66
2020/12/21 02:52:31;;;;;;;25.05;22.58;;;;;;;2.56;73.89;100855.00;10529982;28;20058;-64
2020/12/21 02:57:32;;;;;;;25.58;22.88;;;;;;;2.44;74.16;100853.13;10530084;28;20047;-65
2020/12/21 03:02:33;;;;;;;24.45;22.00;;;;;;;2.53;74.21;100839.41;10549565;28;20051;-65
2020/12/21 03:07:41;;;;;;;23.60;21.33;;;;;;;2.63;73.59;100840.41;10549262;28;20134;-65
2020/12/21 03:12:42;;;;;;;24.05;21.73;;;;;;;2.57;73.84;100835.09;10530659;28;20063;-64
2020/12/21 03:17:43;;;;;;;25.45;22.75;;;;;;;2.37;74.28;100851.28;10547660;28;20036;-65
2020/12/21 03:22:47;;;;;;;26.30;22.75;;;;;;;2.35;74.62;100840.03;10528711;28;20047;-65
2020/12/21 03:27:49;;;;;;;23.52;21.05;;;;;;;2.45;74.26;100839.28;10545818;28;20051;-64
2020/12/21 03:32:50;;;;;;;25.92;22.77;;;;;;;2.46;74.04;100847.94;10546223;28;20046;-64
2020/12/21 03:37:59;;;;;;;25.88;22.67;;;;;;;2.55;73.74;100845.47;10546091;28;20044;-64
2020/12/21 03:43:01;;;;;;;24.42;22.00;;;;;;;2.58;73.69;100849.84;10546189;28;20146;-64
2020/12/21 03:48:02;;;;;;;24.95;22.45;;;;;;;2.35;74.18;100840.03;10546765;28;20044;-65
2020/12/21 03:53:03;;;;;;;25.90;22.35;;;;;;;2.59;73.95;100841.19;10526939;28;20040;-64
2020/12/21 03:58:05;;;;;;;25.05;22.40;;;;;;;2.69;73.06;100835.28;10544244;28;20122;-65
2020/12/21 04:03:06;;;;;;;23.25;20.80;;;;;;;2.66;73.30;100841.31;10546313;28;20093;-64
2020/12/21 04:08:21;;;;;;;24.02;21.73;;;;;;;2.66;73.34;100849.09;10544575;28;20527;-64
2020/12/21 04:13:23;;;;;;;22.95;20.60;;;;;;;2.75;73.00;100845.75;10544983;28;20132;-65
2020/12/21 04:18:37;;;;;;;23.23;21.05;;;;;;;2.42;73.97;100841.81;10545154;28;20327;-64
2020/12/21 04:23:38;;;;;;;21.45;19.45;;;;;;;2.59;73.66;100843.78;10527016;28;20043;-64
2020/12/21 04:28:40;;;;;;;22.90;20.73;;;;;;;2.65;73.05;100838.69;10543221;28;20036;-65
2020/12/21 04:33:42;;;;;;;23.02;20.75;;;;;;;2.74;72.98;100850.03;10541952;28;20075;-65
2020/12/21 04:38:44;;;;;;;22.08;19.95;;;;;;;2.69;72.85;100848.25;10541421;28;20048;-66
2020/12/21 04:43:45;;;;;;;20.88;18.80;;;;;;;2.68;72.87;100839.59;10541597;28;20078;-66
2020/12/21 04:48:48;;;;;;;21.42;19.25;;;;;;;2.80;72.53;100845.81;10542829;28;20074;-65
2020/12/21 04:53:50;;;;;;;21.38;19.35;;;;;;;2.86;72.27;100843.28;10524015;28;20558;-64
2020/12/21 04:58:51;;;;;;;20.80;19.02;;;;;;;2.62;72.92;100841.25;10542235;28;20097;-66
2020/12/21 05:03:53;;;;;;;19.45;17.42;;;;;;;2.75;72.58;100849.22;10541738;28;20075;-66
2020/12/21 05:09:13;;;;;;;22.33;20.08;;;;;;;2.73;72.67;100853.50;10541262;28;20056;-66
2020/12/21 05:14:15;;;;;;;21.38;19.65;;;;;;;2.49;73.24;100846.28;10541170;28;20044;-65
2020/12/21 05:19:24;;;;;;;21.73;19.73;;;;;;;2.39;73.57;100840.91;10540795;28;20036;-66
2020/12/21 05:24:25;;;;;;;24.40;18.88;;;;;;;2.70;72.26;100839.59;10540911;28;20047;-64
2020/12/21 05:29:27;;;;;;;20.33;18.45;;;;;;;2.39;72.71;100834.03;10522807;28;20076;-64
2020/12/21 05:34:28;;;;;;;19.77;17.98;;;;;;;2.36;72.92;100822.72;10522554;28;20040;-66
2020/12/21 05:39:30;;;;;;;20.40;18.52;;;;;;;2.38;72.57;100836.56;10522673;28;20465;-64
2020/12/21 05:44:31;;;;;;;20.58;18.58;;;;;;;2.30;72.59;100846.84;10542885;28;20079;-64
2020/12/21 05:49:35;;;;;;;19.80;18.00;;;;;;;2.29;72.80;100847.69;10542519;28;20048;-64
2020/12/21 05:54:37;;;;;;;21.48;19.25;;;;;;;2.39;72.28;100841.81;10541633;28;20090;-64
2020/12/21 05:59:39;;;;;;;21.77;19.75;;;;;;;2.23;72.78;100843.28;10540986;28;20048;-65
2020/12/21 06:04:49;;;;;;;20.63;18.65;;;;;;;2.19;72.76;100853.59;10541023;28;20033;-65
2020/12/21 06:09:51;;;;;;;21.90;19.75;;;;;;;2.22;72.58;100861.44;10521931;28;20093;-65
2020/12/21 06:15:00;;;;;;;21.27;19.15;;;;;;;2.14;72.88;100847.47;10540377;28;20039;-66
2020/12/21 06:20:06;;;;;;;25.38;22.33;;;;;;;2.06;73.17;100854.25;10540634;28;20048;-66
2020/12/21 06:25:07;;;;;;;25.27;22.02;;;;;;;1.94;73.11;100860.09;10547132;28;20032;-66
2020/12/21 06:30:10;;;;;;;21.45;19.38;;;;;;;1.98;73.14;100857.59;10547617;28;20064;-66
2020/12/21 06:35:19;;;;;;;24.98;20.98;;;;;;;1.92;73.37;100849.72;10528735;28;20040;-66
2020/12/21 06:40:30;;;;;;;24.25;21.85;;;;;;;1.93;73.57;100859.25;10546622;28;20048;-65
2020/12/21 06:45:34;;;;;;;21.95;19.73;;;;;;;2.13;73.15;100867.34;10546359;28;20040;-65
2020/12/21 06:50:36;;;;;;;22.30;20.05;;;;;;;2.17;73.01;100868.25;10546676;28;20059;-65
2020/12/21 06:55:39;;;;;;;25.67;21.70;;;;;;;2.06;73.36;100875.88;10547788;28;20039;-65
2020/12/21 07:00:40;;;;;;;21.02;19.10;;;;;;;2.09;73.25;100875.06;10547476;28;20066;-65
2020/12/21 07:05:41;;;;;;;23.52;21.00;;;;;;;2.00;73.49;100879.25;10545722;28;20445;-65
2020/12/21 07:10:43;;;;;;;25.17;20.75;;;;;;;2.15;73.27;100882.94;10546567;28;20147;-65
2020/12/21 07:15:44;;;;;;;23.02;20.42;;;;;;;2.17;73.17;100889.00;10546422;28;20056;-65
2020/12/21 07:20:45;;;;;;;22.40;20.02;;;;;;;2.30;72.49;100887.47;10527131;28;20083;-63
2020/12/21 07:25:51;;;;;;;22.02;19.73;;;;;;;2.42;72.21;100896.31;10546193;28;20097;-66
2020/12/21 07:30:52;;;;;;;20.83;18.83;;;;;;;2.38;72.17;100897.13;10545403;28;20039;-64
2020/12/21 07:35:57;;;;;;;21.90;19.73;;;;;;;2.37;72.37;100897.09;10543895;28;20116;-64
2020/12/21 07:40:59;;;;;;;21.50;18.60;;;;;;;2.46;72.06;100903.31;10544124;28;20047;-66
2020/12/21 07:46:06;;;;;;;21.55;19.38;;;;;;;2.48;72.04;100900.75;10545320;28;20443;-65
2020/12/21 07:51:07;;;;;;;20.85;18.65;;;;;;;2.66;71.47;100901.03;10544746;28;20036;-63
2020/12/21 07:56:14;;;;;;;20.85;18.75;;;;;;;2.63;71.33;100907.88;10543846;28;20048;-64
2020/12/21 08:01:21;;;;;;;21.17;19.15;;;;;;;2.63;71.79;100910.47;10545219;28;20389;-65
2020/12/21 08:06:25;;;;;;;21.85;19.77;;;;;;;2.80;71.24;100903.81;10542726;28;20402;-64
2020/12/21 08:11:31;;;;;;;23.83;18.85;;;;;;;2.88;71.15;100907.38;10543069;28;20040;-64
2020/12/21 08:16:32;;;;;;;21.80;19.55;;;;;;;2.85;70.75;100906.47;10542021;28;20044;-65
2020/12/21 08:21:33;;;;;;;25.98;20.52;;;;;;;2.91;70.61;100902.22;10542915;28;20408;-64
2020/12/21 08:26:36;;;;;;;21.10;19.20;;;;;;;2.88;71.09;100899.59;10543333;28;20082;-65
2020/12/21 08:31:44;;;;;;;21.20;19.17;;;;;;;2.86;71.13;100896.09;10542529;28;20036;-64
2020/12/21 08:36:46;;;;;;;23.02;20.60;;;;;;;2.80;71.03;100892.56;10542351;28;20035;-64
2020/12/21 08:41:51;;;;;;;22.73;20.35;;;;;;;2.91;70.97;100899.59;10543456;28;20035;-65
2020/12/21 08:46:55;;;;;;;25.08;21.35;;;;;;;2.83;70.74;100909.00;10544234;28;20076;-66
2020/12/21 08:52:01;;;;;;;22.92;20.52;;;;;;;2.83;70.98;100919.41;10543189;28;20127;-66
2020/12/21 08:57:03;;;;;;;24.95;21.98;;;;;;;2.77;71.00;100915.00;10542874;28;20048;-66
2020/12/21 09:02:04;;;;;;;23.27;20.90;;;;;;;2.78;70.98;100918.47;10541641;28;20047;-65
2020/12/21 09:07:05;;;;;;;24.33;21.85;;;;;;;2.80;70.75;100921.09;10524265;28;20101;-64
2020/12/21 09:12:07;;;;;;;26.58;23.73;;;;;;;2.93;70.64;100916.09;10542067;28;20079;-64
2020/12/21 09:17:08;;;;;;;30.90;23.60;;;;;;;2.85;70.62;100916.84;10542101;28;20039;-64
2020/12/21 09:22:10;;;;;;;25.35;22.60;;;;;;;2.95;70.50;100909.19;10542218;28;20044;-65
2020/12/21 09:27:11;;;;;;;31.33;23.85;;;;;;;2.83;70.86;100910.75;10525792;28;20102;-65
2020/12/21 09:32:12;;;;;;;27.10;24.20;;;;;;;2.94;71.13;100912.66;10542997;28;20051;-65
2020/12/21 09:37:14;;;;;;;31.83;24.00;;;;;;;3.32;69.92;100908.75;10543738;28;20044;-65
2020/12/21 09:42:16;;;;;;;26.77;23.83;;;;;;;3.33;69.67;100906.22;10542351;28;20047;-65
2020/12/21 09:47:18;;;;;;;32.25;24.35;;;;;;;3.43;69.36;100904.56;10542627;28;20077;-64
2020/12/21 09:52:19;;;;;;;38.25;25.33;;;;;;;3.44;69.55;100894.19;10525721;28;20080;-65
2020/12/21 09:57:20;;;;;;;29.70;24.63;;;;;;;3.70;69.05;100894.47;10546284;28;20448;-66
2020/12/21 10:02:22;;;;;;;34.58;25.50;;;;;;;3.74;68.68;100884.97;10549730;28;20379;-65
2020/12/21 10:07:32;;;;;;;32.70;25.55;;;;;;;3.78;68.80;100884.16;10545412;28;20394;-68
2020/12/21 10:12:34;;;;;;;29.20;23.85;;;;;;;3.94;68.21;100877.34;10546761;28;20071;-67
2020/12/21 10:17:35;;;;;;;29.23;24.08;;;;;;;3.76;68.64;100870.25;10542596;28;20529;-67
2020/12/21 10:22:37;;;;;;;29.67;23.70;;;;;;;4.07;67.85;100870.50;10543252;28;20051;-69
2020/12/21 10:27:39;;;;;;;27.13;23.40;;;;;;;4.19;68.05;100871.47;10543561;28;20451;-68
2020/12/21 10:32:43;;;;;;;42.15;22.35;;;;;;;4.34;67.05;100867.22;10546745;28;20032;-68
2020/12/21 10:37:45;;;;;;;27.20;22.10;;;;;;;4.36;66.98;100850.78;10547282;28;20036;-69
2020/12/21 10:42:46;;;;;;;27.63;22.80;;;;;;;4.36;67.24;100842.97;10528260;28;20051;-68
2020/12/21 10:47:47;;;;;;;25.58;21.15;;;;;;;4.59;66.89;100842.25;10527952;28;20109;-68
2020/12/21 10:52:49;;;;;;;23.83;21.50;;;;;;;4.71;66.42;100842.31;10548720;28;20044;-68
2020/12/21 10:57:50;;;;;;;24.70;22.13;;;;;;;4.83;66.03;100831.09;10547494;28;20131;-69
2020/12/21 11:02:51;;;;;;;22.55;20.30;;;;;;;4.76;66.24;100823.22;10546284;28;20044;-69
2020/12/21 11:07:52;;;;;;;21.60;19.42;;;;;;;5.24;65.14;100813.84;10545602;28;20153;-69
2020/12/21 11:13:01;;;;;;;20.75;18.70;;;;;;;7.34;59.49;100797.78;10545959;28;20046;-68
2020/12/21 11:18:03;;;;;;;19.23;17.55;;;;;;;9.96;53.51;100779.91;10545795;28;20527;-67
2020/12/21 11:23:05;;;;;;;17.67;15.98;;;;;;;10.31;51.59;100779.28;10544217;28;20105;-67
2020/12/21 11:28:07;;;;;;;19.00;17.05;;;;;;;11.87;48.43;100769.75;10544124;28;20048;-68
2020/12/21 11:33:09;;;;;;;19.08;17.50;;;;;;;11.22;48.39;100778.28;10543406;28;20085;-68
2020/12/21 11:38:11;;;;;;;16.95;15.45;;;;;;;10.64;49.88;100773.41;10543349;28;20050;-68
2020/12/21 11:43:12;;;;;;;17.05;15.65;;;;;;;11.74;51.05;100755.97;10543587;28;20059;-68
2020/12/21 11:48:13;;;;;;;16.45;15.15;;;;;;;12.28;46.69;100755.47;10543740;28;20048;-68
2020/12/21 11:53:15;;;;;;;18.42;16.77;;;;;;;11.43;47.78;100750.59;10523572;28;20058;-69
2020/12/21 11:58:16;;;;;;;18.25;16.60;;;;;;;9.78;51.49;100753.91;10521019;28;20112;-69
2020/12/21 12:03:17;;;;;;;19.00;17.50;;;;;;;8.29;54.78;100755.97;10540772;28;20040;-69
2020/12/21 12:08:18;;;;;;;19.08;17.38;;;;;;;6.63;58.45;100758.09;10541192;28;20068;-68
2020/12/21 12:13:20;;;;;;;20.33;18.38;;;;;;;7.24;58.27;100757.75;10544183;28;20040;-69
2020/12/21 12:18:22;;;;;;;19.42;17.73;;;;;;;7.70;57.05;100748.69;10542747;28;20054;-69
2020/12/21 12:23:23;;;;;;;19.50;17.90;;;;;;;7.77;56.81;100745.16;10542392;28;20097;-69
2020/12/21 12:28:24;;;;;;;20.77;18.85;;;;;;;7.64;56.80;100754.84;10544149;28;20052;-68
2020/12/21 12:33:26;;;;;;;19.35;17.35;;;;;;;7.02;58.69;100751.78;10543546;28;20412;-68
2020/12/21 12:38:27;;;;;;;20.33;18.42;;;;;;;6.15;60.66;100746.91;10542798;28;20040;-68
2020/12/21 12:43:36;;;;;;;20.55;18.65;;;;;;;5.62;62.23;100729.56;10543105;28;20400;-68
2020/12/21 12:48:37;;;;;;;24.88;17.75;;;;;;;5.52;62.39;100727.84;10541422;28;20052;-68
2020/12/21 12:53:40;;;;;;;19.92;18.08;;;;;;;5.28;63.38;100732.19;10541827;28;20040;-68
2020/12/21 12:58:41;;;;;;;21.98;18.67;;;;;;;5.16;63.87;100726.09;10542933;28;20047;-68
2020/12/21 13:03:43;;;;;;;21.27;19.15;;;;;;;5.12;63.94;100726.94;10542865;28;20111;-69
2020/12/21 13:08:44;;;;;;;20.98;18.13;;;;;;;5.09;64.27;100724.31;10541130;28;20048;-65
2020/12/21 13:13:55;;;;;;;19.40;17.55;;;;;;;5.09;63.85;100721.72;10525307;28;20062;-66
2020/12/21 13:18:57;;;;;;;19.73;17.73;;;;;;;4.80;64.87;100718.19;10540547;28;20055;-66
2020/12/21 13:24:00;;;;;;;20.52;18.67;;;;;;;4.71;64.98;100712.09;10542330;28;20107;-66
2020/12/21 13:29:01;;;;;;;22.15;18.27;;;;;;;4.82;64.72;100712.97;10541411;28;20048;-65
2020/12/21 13:34:04;;;;;;;20.08;18.02;;;;;;;4.65;65.07;100706.84;10549747;28;20078;-66
2020/12/21 13:39:05;;;;;;;23.85;19.08;;;;;;;4.44;65.57;100710.28;10549283;28;20466;-65
2020/12/21 13:44:23;;;;;;;25.73;19.33;;;;;;;4.37;65.67;100714.56;10549297;28;20060;-66
2020/12/21 13:49:25;;;;;;;23.98;19.02;;;;;;;4.16;66.15;100711.84;10549802;28;20044;-66
2020/12/21 13:54:26;;;;;;;19.67;17.48;;;;;;;3.97;66.84;100713.50;10548327;28;20094;-65
2020/12/21 13:59:27;;;;;;;23.75;18.10;;;;;;;3.99;66.65;100703.97;10549197;28;20040;-66
2020/12/21 14:04:29;;;;;;;20.02;17.88;;;;;;;4.04;66.69;100710.94;10549025;28;20383;-65
2020/12/21 14:09:30;;;;;;;19.13;17.38;;;;;;;3.92;66.86;100707.41;10549578;28;20044;-66
2020/12/21 14:14:33;;;;;;;18.33;16.33;;;;;;;3.69;67.66;100708.13;10548714;28;20040;-66
2020/12/21 14:19:34;;;;;;;20.73;16.58;;;;;;;3.55;68.16;100704.56;10550298;28;20071;-66
2020/12/21 14:24:36;;;;;;;22.40;17.13;;;;;;;3.54;68.30;100703.69;10549315;28;20048;-64
2020/12/21 14:29:37;;;;;;;25.88;17.73;;;;;;;3.45;68.62;100705.31;10548248;28;20512;-66
2020/12/21 14:34:39;;;;;;;17.20;15.52;;;;;;;3.37;68.84;100699.22;10548729;28;20040;-66
2020/12/21 14:39:41;;;;;;;19.63;16.98;;;;;;;3.55;68.25;100691.56;10547028;28;20040;-66
2020/12/21 14:44:51;;;;;;;21.60;17.48;;;;;;;3.30;69.05;100685.28;10542989;28;20471;-66
2020/12/21 14:49:52;;;;;;;19.73;16.38;;;;;;;3.31;68.94;100687.03;10529368;28;20056;-66
2020/12/21 14:54:53;;;;;;;23.35;16.77;;;;;;;3.34;69.16;100689.66;10546308;28;20505;-66
2020/12/21 14:59:54;;;;;;;19.63;15.82;;;;;;;3.26;69.39;100686.13;10528884;28;20044;-66
2020/12/21 15:04:56;;;;;;;18.27;16.55;;;;;;;3.12;69.71;100688.59;10546524;28;20048;-65
2020/12/21 15:10:07;;;;;;;19.38;14.63;;;;;;;3.22;69.32;100685.22;10547713;28;20050;-66
2020/12/21 15:15:13;;;;;;;15.75;13.40;;;;;;;3.07;69.78;100684.22;10547652;28;20089;-66
2020/12/21 15:20:14;;;;;;;14.07;12.57;;;;;;;3.13;69.62;100677.34;10546336;28;20442;-66
2020/12/21 15:25:16;;;;;;;14.45;12.63;;;;;;;3.03;69.93;100676.41;10544509;28;20044;-65
2020/12/21 15:30:17;;;;;;;16.08;14.43;;;;;;;2.86;70.30;100683.16;10544619;28;20059;-66
2020/12/21 15:35:18;;;;;;;17.08;14.75;;;;;;;3.04;69.94;100670.34;10546684;28;20471;-66
2020/12/21 15:40:20;;;;;;;17.83;16.10;;;;;;;3.03;70.07;100679.00;10545328;28;20048;-66
2020/12/21 15:45:28;;;;;;;25.52;21.42;;;;;;;2.95;70.48;100664.19;10545088;28;20071;-65
2020/12/21 15:50:29;;;;;;;18.10;16.30;;;;;;;3.08;70.13;100657.41;10543002;28;20447;-66
2020/12/21 15:55:30;;;;;;;18.90;16.20;;;;;;;3.06;70.54;100653.94;10543051;28;20073;-65
2020/12/21 16:00:31;;;;;;;18.70;16.85;;;;;;;2.81;71.12;100648.50;10543075;28;20446;-65
2020/12/21 16:05:33;;;;;;;17.55;15.65;;;;;;;2.76;71.20;100652.78;10544221;28;20044;-65
2020/12/21 16:10:34;;;;;;;18.25;16.27;;;;;;;3.06;70.31;100659.13;10543086;28;20149;-64
2020/12/21 16:15:51;;;;;;;12.55;11.23;;;;;;;2.99;70.61;100653.84;10543803;28;20097;-62
2020/12/21 16:20:52;;;;;;;20.00;15.55;;;;;;;2.72;71.02;100657.06;10527221;28;20070;-65
2020/12/21 16:25:53;;;;;;;17.30;15.48;;;;;;;2.90;70.80;100643.38;10543530;28;20047;-65
2020/12/21 16:30:54;;;;;;;17.00;15.20;;;;;;;2.87;70.74;100635.56;10542885;28;20039;-66
2020/12/21 16:35:56;;;;;;;19.27;15.10;;;;;;;2.70;71.40;100637.13;10542580;28;20075;-65
2020/12/21 16:40:57;;;;;;;20.13;17.02;;;;;;;2.80;71.59;100628.59;10543634;28;20115;-65
2020/12/21 16:46:02;;;;;;;17.65;15.95;;;;;;;2.72;71.95;100622.44;10542110;28;20432;-64
2020/12/21 16:51:04;;;;;;;17.83;16.08;;;;;;;2.80;71.73;100617.34;10541409;28;20048;-64
2020/12/21 16:56:05;;;;;;;20.38;17.77;;;;;;;2.88;71.87;100610.47;10542564;28;20040;-65
2020/12/21 17:01:12;;;;;;;17.30;15.60;;;;;;;2.85;71.43;100605.25;10542318;28;20048;-65
2020/12/21 17:06:16;;;;;;;19.33;17.52;;;;;;;2.77;71.98;100597.41;10540788;28;20101;-65
2020/12/21 17:11:18;;;;;;;19.65;17.63;;;;;;;2.94;71.75;100590.63;10542283;28;20044;-64
2020/12/21 17:16:24;;;;;;;18.58;16.45;;;;;;;2.64;72.76;100580.84;10542476;28;20044;-65
2020/12/21 17:21:29;;;;;;;20.08;18.08;;;;;;;2.68;72.93;100581.75;10542234;28;20051;-64
2020/12/21 17:26:30;;;;;;;19.83;17.80;;;;;;;2.86;72.08;100579.31;10523493;28;20048;-64
2020/12/21 17:31:32;;;;;;;19.77;17.80;;;;;;;3.08;71.92;100576.88;10525964;28;20098;-64
2020/12/21 17:36:37;;;;;;;20.10;17.92;;;;;;;3.01;72.05;100563.84;10503946;28;20111;-66
2020/12/21 17:41:39;;;;;;;19.20;17.35;;;;;;;3.03;71.44;100562.13;10526216;28;20059;-66
2020/12/21 17:46:41;;;;;;;19.33;17.50;;;;;;;3.08;72.06;100556.09;10543279;28;20046;-65
2020/12/21 17:51:43;;;;;;;17.83;16.23;;;;;;;3.14;71.74;100550.94;10543986;28;20350;-66
2020/12/21 17:56:44;;;;;;;16.77;15.18;;;;;;;3.06;71.68;100545.72;10543703;28;20131;-65
2020/12/21 18:01:46;;;;;;;16.75;15.02;;;;;;;2.98;72.20;100545.66;10543222;28;20055;-68
2020/12/21 18:06:47;;;;;;;15.85;14.48;;;;;;;3.18;71.42;100522.38;10541825;28;20090;-74
2020/12/21 18:11:50;;;;;;;16.77;15.18;;;;;;;3.17;71.60;100520.66;10543525;28;20040;-70
2020/12/21 18:16:59;;;;;;;17.02;15.48;;;;;;;3.28;71.26;100510.34;10529710;28;20047;-69
2020/12/21 18:22:00;;;;;;;16.15;14.65;;;;;;;3.19;71.59;100518.94;10551797;28;20106;-69
2020/12/21 18:27:02;;;;;;;16.60;14.65;;;;;;;3.23;71.40;100504.22;10551104;28;20040;-65
2020/12/21 18:32:05;;;;;;;16.77;15.07;;;;;;;3.31;71.25;100494.75;10551230;28;20067;-66
2020/12/21 18:37:07;;;;;;;16.08;14.68;;;;;;;3.40;71.16;100491.31;10535890;28;20066;-69
2020/12/21 18:42:10;;;;;;;15.55;14.25;;;;;;;3.44;71.11;100478.34;10519468;28;20039;-69
2020/12/21 18:47:19;;;;;;;15.98;14.57;;;;;;;3.37;71.32;100478.34;10520814;28;20318;-68
2020/12/21 18:52:20;;;;;;;13.07;11.90;;;;;;;3.47;71.21;100480.09;10520842;28;20498;-68
2020/12/21 18:57:21;;;;;;;13.65;12.45;;;;;;;3.44;71.47;100473.16;10524894;28;20462;-68
2020/12/21 19:02:23;;;;;;;13.98;12.57;;;;;;;3.43;71.61;100461.03;10535307;28;20382;-70
2020/12/21 19:07:26;;;;;;;12.75;11.55;;;;;;;3.49;71.42;100453.25;10521838;28;20468;-66
2020/12/21 19:12:28;;;;;;;12.80;11.60;;;;;;;3.56;71.48;100448.09;10500062;22;20041;-81
2020/12/21 19:17:34;;;;;;;13.60;12.30;;;;;;;3.42;71.87;100448.91;10490907;28;20087;-80
2020/12/21 19:22:35;;;;;;;12.35;11.25;;;;;;;3.72;71.53;100436.88;10490072;28;20071;-80
2020/12/21 19:27:42;;;;;;;14.00;12.73;;;;;;;3.58;71.53;100441.16;10493051;28;20037;-80
2020/12/21 19:32:43;;;;;;;15.13;13.82;;;;;;;3.65;71.54;100443.78;10470894;28;20049;-79
2020/12/21 19:37:44;;;;;;;16.27;14.25;;;;;;;3.86;70.92;100429.97;10489507;28;20045;-80
2020/12/21 19:42:46;;;;;;;17.88;15.65;;;;;;;3.67;71.54;100420.38;10491569;28;20053;-79
2020/12/21 19:47:51;;;;;;;18.50;16.63;;;;;;;3.92;71.21;100423.91;10492565;28;20068;-81
2020/12/21 19:52:53;;;;;;;25.00;21.27;;;;;;;3.75;71.68;100410.88;10491517;28;20045;-80
2020/12/21 19:57:54;;;;;;;23.95;20.88;;;;;;;3.93;71.03;100421.28;10484791;28;20148;-80
2020/12/21 20:02:55;;;;;;;24.02;21.42;;;;;;;3.88;71.14;100411.75;10467949;28;20056;-80
2020/12/21 20:07:56;;;;;;;24.85;21.52;;;;;;;3.93;70.99;100389.22;10486112;28;20075;-81
2020/12/21 20:12:59;;;;;;;25.88;23.08;;;;;;;3.72;71.48;100364.94;10479768;28;20052;-81
2020/12/21 20:18:13;;;;;;;32.13;23.98;;;;;;;3.79;71.36;100381.41;10464169;28;20053;-80
2020/12/21 20:23:15;;;;;;;25.77;22.35;;;;;;;3.96;71.03;100386.63;10461733;28;20048;-80
2020/12/21 20:28:17;;;;;;;27.90;22.17;;;;;;;3.78;71.50;100370.13;10470206;28;20049;-82
2020/12/21 20:33:18;;;;;;;28.35;23.40;;;;;;;3.85;71.49;100368.44;10465258;28;20137;-79
2020/12/21 20:38:20;;;;;;;25.67;22.88;;;;;;;4.03;70.83;100347.63;10464074;28;20045;-81
2020/12/21 20:43:22;;;;;;;24.27;21.77;;;;;;;4.17;70.65;100344.16;10469374;28;20045;-82
2020/12/21 20:48:31;;;;;;;25.48;22.92;;;;;;;4.29;70.16;100333.69;10475506;28;20355;-82
2020/12/21 20:53:32;;;;;;;25.88;23.05;;;;;;;4.35;70.16;100317.22;10466943;28;20156;-83
2020/12/21 20:58:34;;;;;;;25.10;22.58;;;;;;;4.29;70.09;100303.38;10486545;28;20040;-81
2020/12/21 21:03:35;;;;;;;24.40;22.05;;;;;;;4.38;70.20;100307.66;10470305;28;20037;-82
2020/12/21 21:08:41;;;;;;;24.00;21.70;;;;;;;4.47;69.88;100307.66;10485348;28;20049;-82
2020/12/21 21:13:42;;;;;;;24.92;21.95;;;;;;;4.40;69.97;100292.91;10468035;28;20049;-83
2020/12/21 21:18:49;;;;;;;25.73;23.20;;;;;;;4.39;70.29;100269.50;10468052;28;20040;-83
2020/12/21 21:23:50;;;;;;;28.40;25.33;;;;;;;4.17;70.71;100272.16;10466356;28;20136;-82
2020/12/21 21:28:55;;;;;;;32.58;26.80;;;;;;;4.21;70.59;100281.69;10451587;28;20072;-83
2020/12/21 21:33:57;;;;;;;30.35;25.08;;;;;;;4.45;69.87;100278.16;10452268;28;20045;-82
2020/12/21 21:39:03;;;;;;;29.08;25.90;;;;;;;4.39;69.97;100267.78;10452623;28;20045;-82
2020/12/21 21:44:05;;;;;;;32.67;26.90;;;;;;;4.48;69.88;100262.53;10473613;28;20032;-82
2020/12/21 21:49:09;;;;;;;36.03;27.52;;;;;;;4.46;69.82;100261.66;10472531;28;20102;-81
2020/12/21 21:54:11;;;;;;;35.83;28.02;;;;;;;4.49;69.75;100258.19;10476605;28;20043;-82
2020/12/21 21:59:13;;;;;;;38.33;28.48;;;;;;;4.46;69.66;100233.03;10496281;28;20076;-83
2020/12/21 22:04:15;;;;;;;33.85;27.67;;;;;;;4.47;69.83;100226.97;10455416;28;20045;-83
2020/12/21 22:09:17;;;;;;;30.92;27.02;;;;;;;4.45;69.97;100222.63;10471292;28;20067;-82
2020/12/21 22:14:19;;;;;;;31.30;27.23;;;;;;;4.22;70.56;100200.16;10476661;28;20041;-82
2020/12/21 22:19:27;;;;;;;32.55;27.55;;;;;;;4.21;70.63;100188.03;10458201;28;20135;-82
2020/12/21 22:24:29;;;;;;;37.25;29.83;;;;;;;4.18;70.71;100194.97;10473269;28;20045;-81
2020/12/21 22:29:30;;;;;;;34.60;28.17;;;;;;;4.16;70.53;100188.88;10475198;28;20076;-83
2020/12/21 22:34:31;;;;;;;37.53;30.02;;;;;;;4.11;70.58;100199.31;10481858;28;20040;-82
2020/12/21 22:39:32;;;;;;;37.85;29.23;;;;;;;4.14;70.72;100201.91;10487804;28;20498;-82
2020/12/21 22:44:34;;;;;;;29.92;26.75;;;;;;;4.38;69.84;100171.47;10475865;28;20045;-81
2020/12/21 22:49:44;;;;;;;33.85;28.27;;;;;;;4.31;70.01;100165.44;10475048;28;20071;-82
2020/12/21 22:54:45;;;;;;;32.10;28.13;;;;;;;4.09;70.76;100161.19;10473426;28;20045;-80